createdAt,value
2023-02-19T00:22:00.058Z,3.97
2023-02-19T02:51:56.507Z,1.80
2023-02-19T02:55:19.620Z,3.10
2023-02-19T03:01:04.304Z,3.24
2023-02-19T03:03:33.072Z,3.70
2023-02-19T03:06:02.570Z,4.63
2023-02-19T03:08:30.229Z,3.17
2023-02-19T03:10:59.371Z,3.28
2023-02-19T03:13:44.317Z,3.67
2023-02-19T03:16:33.986Z,6.35
2023-02-19T03:19:19.142Z,5.93
2023-02-19T03:22:03.186Z,1.67
2023-02-19T03:24:53.121Z,2.15
2023-02-19T03:27:20.821Z,2.50
2023-02-19T03:29:49.130Z,6.25
2023-02-19T03:32:19.879Z,4.18
2023-02-19T03:34:58.153Z,4.55
2023-02-19T03:37:25.227Z,3.70
2023-02-19T03:39:52.417Z,8.85
2023-02-19T03:42:24.775Z,5.55
2023-02-19T03:44:51.094Z,4.03
2023-02-19T03:47:20.274Z,4.25
2023-02-19T03:49:51.763Z,4.30
2023-02-19T03:52:31.123Z,8.77
2023-02-19T03:55:07.106Z,6.35
2023-02-19T03:57:45.347Z,6.95
2023-02-19T04:00:15.874Z,7.75
2023-02-19T04:03:02.425Z,4.13
2023-02-19T04:05:33.320Z,3.88
2023-02-19T04:08:04.271Z,10.35
2023-02-19T04:10:31.028Z,6.78
2023-02-19T04:13:02.372Z,5.95
2023-02-19T04:15:30.593Z,3.47
2023-02-19T04:17:59.952Z,6.72
2023-02-19T04:20:27.831Z,3.78
2023-02-19T04:22:54.549Z,9.93
2023-02-19T04:25:21.270Z,6.13
2023-02-19T04:27:47.546Z,8.68
2023-02-19T04:30:14.567Z,4.72
2023-02-19T04:32:40.932Z,6.55
2023-02-19T04:35:07.328Z,8.57
2023-02-19T04:37:33.609Z,8.00
2023-02-19T04:39:59.919Z,10.00
2023-02-19T04:42:26.225Z,13.05
2023-02-19T04:44:52.512Z,7.45
2023-02-19T04:47:18.916Z,10.30
2023-02-19T04:49:45.373Z,7.75
2023-02-19T04:52:11.746Z,12.65
2023-02-19T04:54:38.154Z,6.30
2023-02-19T04:57:04.537Z,10.75
2023-02-19T04:59:30.858Z,7.88
2023-02-19T05:01:57.991Z,11.38
2023-02-19T05:04:24.400Z,10.88
2023-02-19T05:06:50.715Z,5.60
2023-02-19T05:09:17.032Z,9.70
2023-02-19T05:11:43.306Z,7.38
2023-02-19T05:14:09.645Z,6.75
2023-02-19T05:16:35.966Z,9.68
2023-02-19T05:19:02.261Z,7.68
2023-02-19T05:21:28.582Z,6.70
2023-02-19T05:23:54.859Z,9.23
2023-02-19T05:26:22.569Z,10.68
2023-02-19T05:28:50.210Z,8.95
2023-02-19T05:31:17.087Z,10.85
2023-02-19T05:33:46.378Z,12.52
2023-02-19T05:36:13.669Z,6.78
2023-02-19T05:38:40.691Z,15.10
2023-02-19T05:41:17.157Z,10.65
2023-02-19T05:43:44.338Z,10.32
2023-02-19T05:46:13.485Z,10.90
2023-02-19T05:48:39.929Z,10.10
2023-02-19T05:51:07.816Z,14.00
2023-02-19T05:53:34.362Z,16.08
2023-02-19T05:56:00.644Z,7.18
2023-02-19T05:58:27.238Z,10.00
2023-02-19T06:00:54.152Z,11.40
2023-02-19T06:05:48.642Z,9.55
2023-02-19T06:08:15.854Z,11.98
2023-02-19T06:10:42.507Z,12.65
2023-02-19T06:13:09.276Z,12.30
2023-02-19T06:15:36.569Z,8.20
2023-02-19T06:18:03.229Z,10.15
2023-02-19T06:20:29.811Z,15.57
2023-02-19T06:22:56.174Z,7.95
2023-02-19T06:25:22.523Z,12.68
2023-02-19T06:27:48.853Z,15.35
2023-02-19T06:30:15.302Z,7.70
2023-02-19T06:32:41.653Z,7.88
2023-02-19T06:35:07.945Z,13.35
2023-02-19T06:37:34.231Z,10.48
2023-02-19T06:40:00.572Z,12.65
2023-02-19T06:42:26.891Z,13.90
2023-02-19T06:44:53.186Z,31.15
2023-02-19T06:47:19.559Z,12.15
2023-02-19T06:49:45.843Z,13.38
2023-02-19T06:52:12.148Z,10.00
2023-02-19T06:54:38.450Z,12.23
2023-02-19T06:57:04.859Z,15.68
2023-02-19T06:59:31.226Z,12.13
2023-02-19T07:01:57.624Z,11.95
2023-02-19T07:04:23.982Z,11.43
2023-02-19T07:06:50.402Z,12.73
2023-02-19T07:09:16.827Z,17.20
2023-02-19T07:11:43.262Z,14.20
2023-02-19T07:14:13.589Z,10.85
2023-02-19T07:16:39.996Z,9.10
2023-02-19T07:19:06.386Z,10.63
2023-02-19T07:21:37.561Z,13.65
2023-02-19T07:24:05.129Z,11.38
2023-02-19T07:26:31.561Z,14.27
2023-02-19T07:28:57.861Z,12.55
2023-02-19T07:31:24.587Z,18.17
2023-02-19T07:33:51.478Z,17.35
2023-02-19T07:36:18.878Z,12.50
2023-02-19T07:38:45.563Z,11.30
2023-02-19T07:41:12.462Z,10.52
2023-02-19T07:43:38.970Z,12.85
2023-02-19T07:46:09.423Z,13.45
2023-02-19T07:48:36.732Z,13.55
2023-02-19T07:51:04.077Z,19.08
2023-02-19T07:53:30.566Z,12.13
2023-02-19T07:56:01.510Z,16.00
2023-02-19T07:58:28.057Z,10.65
2023-02-19T08:00:54.436Z,15.57
2023-02-19T08:03:20.850Z,12.48
2023-02-19T08:05:49.772Z,21.20
2023-02-19T08:08:16.184Z,24.48
2023-02-19T08:11:01.253Z,19.17
2023-02-19T08:13:29.981Z,18.25
2023-02-19T08:16:16.053Z,14.77
2023-02-19T08:18:44.943Z,17.35
2023-02-19T08:21:11.730Z,13.50
2023-02-19T08:23:38.214Z,16.60
2023-02-19T08:26:05.048Z,23.48
2023-02-19T08:28:31.781Z,14.27
2023-02-19T08:30:59.657Z,13.30
2023-02-19T08:33:26.071Z,16.85
2023-02-19T08:35:52.403Z,19.23
2023-02-19T08:38:18.751Z,12.43
2023-02-19T08:40:45.102Z,18.80
2023-02-19T08:43:12.783Z,13.77
2023-02-19T08:45:40.198Z,10.20
2023-02-19T08:48:07.093Z,12.85
2023-02-19T08:50:33.793Z,16.00
2023-02-19T08:53:00.357Z,13.15
2023-02-19T08:55:26.685Z,12.40
2023-02-19T08:57:53.189Z,13.77
2023-02-19T09:00:19.536Z,11.45
2023-02-19T09:02:46.010Z,13.43
2023-02-19T09:05:12.843Z,11.82
2023-02-19T09:07:39.362Z,11.98
2023-02-19T09:10:05.860Z,16.77
2023-02-19T09:12:33.528Z,12.70
2023-02-19T09:15:00.698Z,14.55
2023-02-19T09:17:27.486Z,16.13
2023-02-19T09:19:53.856Z,14.82
2023-02-19T09:22:20.406Z,11.38
2023-02-19T09:24:46.692Z,17.17
2023-02-19T09:27:17.198Z,17.08
2023-02-19T09:29:43.575Z,16.40
2023-02-19T09:32:10.059Z,17.85
2023-02-19T09:34:36.470Z,15.10
2023-02-19T09:37:02.752Z,16.10
2023-02-19T09:39:29.455Z,11.45
2023-02-19T09:41:58.073Z,14.05
2023-02-19T09:44:27.291Z,11.63
2023-02-19T09:46:54.026Z,16.75
2023-02-19T09:49:33.631Z,14.60
2023-02-19T09:52:04.025Z,12.68
2023-02-19T09:54:31.748Z,12.95
2023-02-19T09:57:00.047Z,13.05
2023-02-19T09:59:28.854Z,13.15
2023-02-19T10:02:02.045Z,13.98
2023-02-19T10:04:28.380Z,10.95
2023-02-19T10:06:58.995Z,15.20
2023-02-19T10:09:27.163Z,14.77
2023-02-19T10:11:57.644Z,12.75
2023-02-19T10:14:39.194Z,11.50
2023-02-19T10:17:06.173Z,16.40
2023-02-19T10:19:33.480Z,11.20
2023-02-19T10:22:02.022Z,13.52
2023-02-19T10:24:29.579Z,11.38
2023-02-19T10:26:56.435Z,13.70
2023-02-19T10:29:24.648Z,16.33
2023-02-19T10:32:10.988Z,12.25
2023-02-19T10:34:37.414Z,8.00
2023-02-19T10:37:03.816Z,14.30
2023-02-19T10:39:30.100Z,23.40
2023-02-19T10:41:56.444Z,9.27
2023-02-19T10:44:29.716Z,12.90
2023-02-19T10:46:58.094Z,13.35
2023-02-19T10:49:24.507Z,11.43
2023-02-19T10:51:52.182Z,12.68
2023-02-19T10:54:35.465Z,8.52
2023-02-19T10:57:21.090Z,12.93
2023-02-19T11:00:13.869Z,11.90
2023-02-19T11:02:40.283Z,14.43
2023-02-19T11:05:06.544Z,11.38
2023-02-19T11:07:33.064Z,11.70
2023-02-19T11:09:59.691Z,10.55
2023-02-19T11:12:28.130Z,10.30
2023-02-19T11:14:54.478Z,13.43
2023-02-19T11:17:25.490Z,12.25
2023-02-19T11:19:53.031Z,13.30
2023-02-19T11:22:25.399Z,11.60
2023-02-19T11:24:55.704Z,10.38
2023-02-19T11:27:23.919Z,11.27
2023-02-19T11:29:50.418Z,10.38
2023-02-19T11:32:23.282Z,11.00
2023-02-19T11:34:49.842Z,7.72
2023-02-19T11:37:17.804Z,10.00
2023-02-19T11:39:45.134Z,7.05
2023-02-19T11:42:30.154Z,9.00
2023-02-19T11:44:56.446Z,8.55
2023-02-19T11:47:36.069Z,13.60
2023-02-19T11:50:05.393Z,10.60
2023-02-19T11:52:34.726Z,8.48
2023-02-19T11:55:18.372Z,8.95
2023-02-19T11:57:50.466Z,12.30
2023-02-19T12:00:35.421Z,9.70
2023-02-19T12:03:17.030Z,8.32
2023-02-19T12:06:01.873Z,9.15
2023-02-19T12:08:28.236Z,7.47
2023-02-19T12:11:00.681Z,7.30
2023-02-19T12:13:47.106Z,11.15
2023-02-19T12:16:13.437Z,10.38
2023-02-19T12:18:55.162Z,10.48
2023-02-19T12:21:31.357Z,8.88
2023-02-19T12:24:03.540Z,7.90
2023-02-19T12:26:43.083Z,11.25
2023-02-19T12:29:18.533Z,10.02
2023-02-19T12:31:53.821Z,9.30
2023-02-19T12:34:20.121Z,14.73
2023-02-19T12:37:01.720Z,9.18
2023-02-19T12:39:30.788Z,9.25
2023-02-19T12:42:06.960Z,12.60
2023-02-19T12:44:43.015Z,10.57
2023-02-19T12:47:15.696Z,8.00
2023-02-19T12:49:45.702Z,11.38
2023-02-19T12:52:16.182Z,10.35
2023-02-19T12:54:43.942Z,11.10
2023-02-19T12:57:10.248Z,11.98
2023-02-19T12:59:39.495Z,9.82
2023-02-19T13:02:19.321Z,9.75
2023-02-19T13:04:45.658Z,7.40
2023-02-19T13:07:24.101Z,7.60
2023-02-19T13:09:55.562Z,8.52
2023-02-19T13:12:27.613Z,8.50
2023-02-19T13:14:53.896Z,8.02
2023-02-19T13:17:32.163Z,6.45
2023-02-19T13:20:03.134Z,6.22
2023-02-19T13:22:55.008Z,7.15
2023-02-19T13:25:21.806Z,9.40
2023-02-19T13:28:06.709Z,6.07
2023-02-19T13:30:51.899Z,5.22
2023-02-19T13:33:24.067Z,4.28
2023-02-19T13:36:09.030Z,7.20
2023-02-19T13:38:39.597Z,4.38
2023-02-19T13:41:06.222Z,5.68
2023-02-19T13:43:35.442Z,6.70
2023-02-19T13:46:12.581Z,7.47
2023-02-19T13:48:40.407Z,6.32
2023-02-19T13:51:13.292Z,5.35
2023-02-19T13:53:44.539Z,5.30
2023-02-19T13:56:29.660Z,6.63
2023-02-19T13:58:55.968Z,5.72
2023-02-19T14:01:42.425Z,5.05
2023-02-19T14:04:17.137Z,8.95
2023-02-19T14:07:02.153Z,5.90
2023-02-19T14:09:34.241Z,6.18
2023-02-19T14:12:15.432Z,6.03
2023-02-19T14:14:42.478Z,6.65
2023-02-19T14:17:08.793Z,6.38
2023-02-19T14:19:55.471Z,6.88
2023-02-19T14:22:40.413Z,5.75
2023-02-19T14:25:09.451Z,4.80
2023-02-19T14:27:37.324Z,4.40
2023-02-19T14:30:05.010Z,7.45
2023-02-19T14:32:31.532Z,5.15
2023-02-19T14:34:58.137Z,4.13
2023-02-19T14:37:25.375Z,6.18
2023-02-19T14:39:54.235Z,7.85
2023-02-19T14:42:23.558Z,7.18
2023-02-19T14:44:57.964Z,9.02
2023-02-19T14:47:25.590Z,7.97
2023-02-19T14:49:59.814Z,6.07
2023-02-19T14:52:26.104Z,5.53
2023-02-19T14:54:54.175Z,6.13
2023-02-19T14:57:22.901Z,7.53
2023-02-19T15:00:04.117Z,7.05
2023-02-19T15:02:32.027Z,5.85
2023-02-19T15:04:58.398Z,6.47
2023-02-19T15:07:27.541Z,5.68
2023-02-19T15:09:57.012Z,6.97
2023-02-19T15:12:24.973Z,6.78
2023-02-19T15:14:53.896Z,4.43
2023-02-19T15:17:30.784Z,8.63
2023-02-19T15:19:58.332Z,6.03
2023-02-19T15:22:25.488Z,12.65
2023-02-19T15:24:51.914Z,4.63
2023-02-19T15:27:23.168Z,5.53
2023-02-19T15:29:53.229Z,5.60
2023-02-19T15:32:24.162Z,6.20
2023-02-19T15:34:55.125Z,8.85
2023-02-19T15:37:21.827Z,7.68
2023-02-19T15:39:49.192Z,8.55
2023-02-19T15:42:18.011Z,6.13
2023-02-19T15:44:51.107Z,7.13
2023-02-19T15:47:20.546Z,8.48
2023-02-19T15:50:07.089Z,6.55
2023-02-19T15:52:36.192Z,7.10
2023-02-19T15:55:17.976Z,9.38
2023-02-19T15:57:46.492Z,4.47
2023-02-19T16:00:15.554Z,7.38
2023-02-19T16:02:42.072Z,7.38
2023-02-19T16:05:12.210Z,7.45
2023-02-19T16:07:38.512Z,6.20
2023-02-19T16:10:06.279Z,7.68
2023-02-19T16:12:32.849Z,8.95
2023-02-19T16:14:59.193Z,7.43
2023-02-19T16:17:28.009Z,5.38
2023-02-19T16:20:02.243Z,8.15
2023-02-19T16:22:30.111Z,5.53
2023-02-19T16:25:03.228Z,7.53
2023-02-19T16:27:40.716Z,5.95
2023-02-19T16:30:25.661Z,8.00
2023-02-19T16:33:11.026Z,7.13
2023-02-19T16:35:40.119Z,38.92
2023-02-19T16:38:13.874Z,8.07
2023-02-19T16:40:42.989Z,8.13
2023-02-19T16:43:12.030Z,7.20
2023-02-19T16:45:41.078Z,5.25
2023-02-19T16:48:08.251Z,9.13
2023-02-19T16:50:34.562Z,4.38
2023-02-19T16:53:02.405Z,5.50
2023-02-19T16:55:29.040Z,6.00
2023-02-19T16:57:55.354Z,21.33
2023-02-19T17:00:23.370Z,8.75
2023-02-19T17:02:51.484Z,5.57
2023-02-19T17:05:18.141Z,6.85
2023-02-19T17:07:44.501Z,10.13
2023-02-19T17:10:15.739Z,6.65
2023-02-19T17:12:42.026Z,8.73
2023-02-19T17:15:08.440Z,13.35
2023-02-19T17:17:34.730Z,8.88
2023-02-19T17:20:01.033Z,5.32
2023-02-19T17:22:27.349Z,9.93
2023-02-19T17:24:55.114Z,11.98
2023-02-19T17:27:21.411Z,7.80
2023-02-19T17:29:47.710Z,5.80
2023-02-19T17:32:14.654Z,6.28
2023-02-19T17:34:41.135Z,7.35
2023-02-19T17:37:07.461Z,6.50
2023-02-19T17:39:33.866Z,8.07
2023-02-19T17:42:00.364Z,9.90
2023-02-19T17:44:26.742Z,6.07
2023-02-19T17:46:53.104Z,6.28
2023-02-19T17:49:19.645Z,8.38
2023-02-19T17:51:45.959Z,9.65
2023-02-19T17:54:12.437Z,8.18
2023-02-19T17:56:43.136Z,7.50
2023-02-19T17:59:10.192Z,8.07
2023-02-19T18:01:36.953Z,9.25
2023-02-19T18:04:03.946Z,8.48
2023-02-19T18:06:30.546Z,27.98
2023-02-19T18:08:56.914Z,12.38
2023-02-19T18:11:23.340Z,10.07
2023-02-19T18:13:50.413Z,9.38
2023-02-19T18:16:17.269Z,7.20
2023-02-19T18:18:44.282Z,5.00
2023-02-19T18:21:11.545Z,7.30
2023-02-19T18:23:38.776Z,9.88
2023-02-19T18:26:11.475Z,6.45
2023-02-19T18:28:38.582Z,8.13
2023-02-19T18:31:05.368Z,10.63
2023-02-19T18:33:32.682Z,7.00
2023-02-19T18:35:59.007Z,6.35
2023-02-19T18:38:25.308Z,8.02
2023-02-19T18:40:51.623Z,5.90
2023-02-19T18:43:17.910Z,9.45
2023-02-19T18:45:45.346Z,6.38
2023-02-19T18:48:11.845Z,9.95
2023-02-19T18:50:38.377Z,7.18
2023-02-19T18:53:06.979Z,8.90
2023-02-19T18:55:33.343Z,5.47
2023-02-19T18:57:59.633Z,6.75
2023-02-19T19:00:26.674Z,22.77
2023-02-19T19:02:56.934Z,7.45
2023-02-19T19:05:23.568Z,5.80
2023-02-19T19:07:50.857Z,5.55
2023-02-19T19:10:17.803Z,14.52
2023-02-19T19:12:44.474Z,6.88
2023-02-19T19:15:10.824Z,11.43
2023-02-19T19:17:37.270Z,6.43
2023-02-19T19:20:03.745Z,6.03
2023-02-19T19:22:30.050Z,7.10
2023-02-19T19:24:56.423Z,7.68
2023-02-19T19:27:22.723Z,5.15
2023-02-19T19:29:49.707Z,7.53
2023-02-19T19:32:16.206Z,10.93
2023-02-19T19:34:43.068Z,8.93
2023-02-19T19:37:09.790Z,7.45
2023-02-19T19:39:36.213Z,12.77
2023-02-19T19:42:02.641Z,9.25
2023-02-19T19:44:29.124Z,6.28
2023-02-19T19:46:56.243Z,8.93
2023-02-19T19:49:22.661Z,8.20
2023-02-19T19:51:48.987Z,10.80
2023-02-19T19:54:15.329Z,11.63
2023-02-19T19:56:45.869Z,11.88
2023-02-19T19:59:12.851Z,12.82
2023-02-19T20:01:39.211Z,10.35
2023-02-19T20:04:06.036Z,12.52
2023-02-19T20:06:32.450Z,12.23
2023-02-19T20:08:59.721Z,13.68
2023-02-19T20:11:26.344Z,11.52
2023-02-19T20:13:52.625Z,13.50
2023-02-19T20:16:23.446Z,12.23
2023-02-19T20:18:49.758Z,10.13
2023-02-19T20:21:16.033Z,11.32
2023-02-19T20:23:42.428Z,11.15
2023-02-19T20:26:08.886Z,13.43
2023-02-19T20:28:35.196Z,11.15
2023-02-19T20:31:01.547Z,13.20
2023-02-19T20:33:27.905Z,12.77
2023-02-19T20:35:56.705Z,12.45
2023-02-19T20:38:23.160Z,15.07
2023-02-19T20:40:49.466Z,9.27
2023-02-19T20:43:15.923Z,11.98
2023-02-19T20:45:45.687Z,13.23
2023-02-19T20:48:14.320Z,13.63
2023-02-19T20:50:40.599Z,11.02
2023-02-19T20:53:06.909Z,14.18
2023-02-19T20:55:33.192Z,14.60
2023-02-19T20:57:59.586Z,12.95
2023-02-19T21:00:26.000Z,14.80
2023-02-19T21:02:52.648Z,10.40
2023-02-19T21:05:19.825Z,12.55
2023-02-19T21:07:46.350Z,10.77
2023-02-19T21:10:12.845Z,10.90
2023-02-19T21:12:39.182Z,12.20
2023-02-19T21:15:05.711Z,10.27
2023-02-19T21:17:32.155Z,12.45
2023-02-19T21:19:58.570Z,10.13
2023-02-19T21:22:24.893Z,7.53
2023-02-19T21:24:53.042Z,17.25
2023-02-19T21:27:20.255Z,10.93
2023-02-19T21:29:46.913Z,10.13
2023-02-19T21:32:13.728Z,13.07
2023-02-19T21:34:40.286Z,9.15
2023-02-19T21:37:06.583Z,11.18
2023-02-19T21:39:34.548Z,11.13
2023-02-19T21:42:00.854Z,12.70
2023-02-19T21:44:27.217Z,14.00
2023-02-19T21:46:53.867Z,14.40
2023-02-19T21:49:20.181Z,13.75
2023-02-19T21:51:48.525Z,13.38
2023-02-19T21:54:16.297Z,14.50
2023-02-19T21:56:42.638Z,15.48
2023-02-19T21:59:09.295Z,11.77
2023-02-19T22:01:40.120Z,15.05
2023-02-19T22:04:06.974Z,15.98
2023-02-19T22:06:33.434Z,12.73
2023-02-19T22:09:00.264Z,16.90
2023-02-19T22:11:26.854Z,18.00
2023-02-19T22:13:53.254Z,18.75
2023-02-19T22:16:20.314Z,19.40
2023-02-19T22:18:50.880Z,17.92
2023-02-19T22:21:17.560Z,20.13
2023-02-19T22:23:45.718Z,20.23
2023-02-19T22:26:18.971Z,13.02
2023-02-19T22:28:45.918Z,15.67
2023-02-19T22:31:12.226Z,15.32
2023-02-19T22:33:38.503Z,16.25
2023-02-19T22:36:05.110Z,11.80
2023-02-19T22:38:31.382Z,17.65
2023-02-19T22:40:57.664Z,12.40
2023-02-19T22:43:23.975Z,12.63
2023-02-19T22:45:50.304Z,19.00
2023-02-19T22:48:25.171Z,18.20
2023-02-19T22:50:57.179Z,15.47
2023-02-19T22:53:23.581Z,17.37
2023-02-19T22:55:50.554Z,16.70
2023-02-19T22:58:16.910Z,15.60
2023-02-19T23:00:43.211Z,16.07
2023-02-19T23:03:09.690Z,17.77
2023-02-19T23:05:36.035Z,13.73
2023-02-19T23:08:02.338Z,18.57
2023-02-19T23:10:28.676Z,17.57
2023-02-19T23:12:55.019Z,18.53
2023-02-19T23:15:21.340Z,17.97
2023-02-19T23:17:47.867Z,19.33
2023-02-19T23:20:14.193Z,14.67
2023-02-19T23:22:40.506Z,20.97
2023-02-19T23:25:06.939Z,20.30
2023-02-19T23:27:33.270Z,22.53
2023-02-19T23:29:59.596Z,20.97
2023-02-19T23:32:25.895Z,22.80
2023-02-19T23:34:52.414Z,19.80
2023-02-19T23:37:18.830Z,18.43
2023-02-19T23:39:45.166Z,18.87
2023-02-19T23:42:16.573Z,22.77
2023-02-19T23:44:45.876Z,17.47
2023-02-19T23:47:12.190Z,19.87
2023-02-19T23:49:38.482Z,20.50
2023-02-19T23:52:05.021Z,17.40
2023-02-19T23:54:31.522Z,15.03
2023-02-19T23:56:57.895Z,16.50
2023-02-19T23:59:24.261Z,16.90
